Route Details

Aircraft Information
Group: North America Fleet
Types: B738, B752, B762, B763
Route Data
Distance: 436nm
Duration: 0h 00m
Origin METAR: KCVG 081752Z 21009KT 10SM OVC034 13/02 A2993 RMK AO2 SLP132 T01330022 10133 20067 58018
Dest. METAR: KABE 081751Z 21005KT 10SM OVC043 08/M01 A3016 RMK AO2 SLP215 T00831006 10083 21017 58010
Freight Data
(for Dec 8, 2023)
Load Factor:
80%
Manifested Cargo: 87,080lbs
Financial History
Total Freight: 217,387lbs
Average Load: 0lbs/flt
Fuel Used: 39,075lbs
Avg. Fuel Used: 0lbs/flt
Fuel Expense: $27,109
Avg. Fuel Expense: $0
Avg. Fuel Cost: $0/lbs
Total Gross Income: $454,340
Pilot Pay: $387
Total Expenses: $49,668
Total Revenue: $376,952
Average Revenue: $0

Capitol Logistics 507




KCVG
Cincinnati/Northern Kentucky International Airport
Covington, Kentucky
KABE
Lehigh Valley International Airport
Allentown, Pennsylvania

Activity Log

Date Flight Route Aircraft Duration
06/27/2021 CPX7306 ROCKT1 ROCKT HIDON Q42 PSYKO Q71 PSB V30 ETX B763 1h 27m
04/10/2021 CPX7306 ROCKT1 ROCKT HIDON Q42 PSYKO Q71 PSB V30 ETX B752 1h 37m
04/08/2021 CPX7306 ROCKT1 ROCKT HIDON Q42 PSYKO Q71 PSB V30 ETX B752 1h 23m